Time;durP1;ratioP1;P1;durP2;ratioP2;P2;SDS_P1;SDS_P2;PMS_P1;PMS_P2;Temp;Humidity;BMP_temperature;BMP_pressure;BME280_temperature;BME280_humidity;BME280_pressure;Samples;Min_cycle;Max_cycle;Signal;HPM_P1;HPM_P2
2023/07/16 09:09:19;;;;;;;0.38;0.38;;;;;;;;;;7369354;19;20226;-89
2023/07/16 09:27:04;;;;;;;0.40;0.40;;;;;;;;;;7395189;19;20213;-87
2023/07/16 09:30:04;;;;;;;0.70;0.70;;;;;;;;;;7394145;19;20200;-88
2023/07/16 09:32:57;;;;;;;0.63;0.50;;;;;;;;;;7396832;19;20144;-88
2023/07/16 09:35:26;;;;;;;0.38;0.38;;;;;;;;;;7401743;19;20196;-87
2023/07/16 09:37:54;;;;;;;0.30;0.30;;;;;;;;;;7396879;19;20557;-87
2023/07/16 09:40:21;;;;;;;0.40;0.40;;;;;;;;;;7399172;19;20832;-87
2023/07/16 09:42:48;;;;;;;0.40;0.40;;;;;;;;;;7399693;19;20602;-89
2023/07/16 09:45:18;;;;;;;0.40;0.40;;;;;;;;;;7400458;19;20140;-89
2023/07/16 09:47:45;;;;;;;0.95;0.70;;;;;;;;;;7394894;19;20161;-89
2023/07/16 09:50:12;;;;;;;0.55;0.55;;;;;;;;;;7396890;19;20173;-89
2023/07/16 09:52:42;;;;;;;0.60;0.60;;;;;;;;;;7397831;19;20143;-88
2023/07/16 09:55:09;;;;;;;0.43;0.43;;;;;;;;;;7399621;19;20133;-88
2023/07/16 09:57:40;;;;;;;0.32;0.32;;;;;;;;;;7394894;19;20160;-89
2023/07/16 10:00:12;;;;;;;0.40;0.40;;;;;;;;;;7396542;19;20136;-88
2023/07/16 10:02:39;;;;;;;0.80;0.47;;;;;;;;;;7398823;19;20598;-91
2023/07/16 10:05:26;;;;;;;1.20;0.65;;;;;;;;;;7395635;19;20146;-90
2023/07/16 10:07:58;;;;;;;0.50;0.50;;;;;;;;;;7398047;19;20147;-91
2023/07/16 10:10:53;;;;;;;0.70;0.70;;;;;;;;;;7394776;19;20778;-90
2023/07/16 10:13:23;;;;;;;0.50;0.50;;;;;;;;;;7396691;19;20921;-91
2023/07/16 10:15:57;;;;;;;0.43;0.43;;;;;;;;;;7395825;19;20137;-90
2023/07/16 10:18:30;;;;;;;0.55;0.55;;;;;;;;;;7391748;19;20243;-89
2023/07/16 10:21:06;;;;;;;0.65;0.65;;;;;;;;;;7391851;19;20137;-89
2023/07/16 10:23:43;;;;;;;0.60;0.60;;;;;;;;;;7395822;19;20129;-90
2023/07/16 10:26:12;;;;;;;0.95;0.95;;;;;;;;;;7396653;19;20144;-90
2023/07/16 10:28:44;;;;;;;0.43;0.43;;;;;;;;;;7392501;19;20195;-90
2023/07/16 10:31:19;;;;;;;0.50;0.50;;;;;;;;;;7396342;19;20145;-90
2023/07/16 10:34:04;;;;;;;0.63;0.63;;;;;;;;;;7395887;19;20137;-90
2023/07/16 10:36:41;;;;;;;1.67;0.68;;;;;;;;;;7397604;19;20184;-89
2023/07/16 10:39:08;;;;;;;0.68;0.68;;;;;;;;;;7398542;19;20152;-89
2023/07/16 10:41:34;;;;;;;0.68;0.68;;;;;;;;;;7394380;19;20129;-90
2023/07/16 10:44:01;;;;;;;0.40;0.40;;;;;;;;;;7397787;19;20141;-88
2023/07/16 10:46:28;;;;;;;0.57;0.57;;;;;;;;;;7396292;19;20153;-89
2023/07/16 10:48:55;;;;;;;0.52;0.52;;;;;;;;;;7383561;19;20149;-88
2023/07/16 10:51:28;;;;;;;0.50;0.50;;;;;;;;;;7388455;19;20141;-88
2023/07/16 10:53:59;;;;;;;0.50;0.50;;;;;;;;;;7392507;19;20140;-88
2023/07/16 10:56:26;;;;;;;0.63;0.63;;;;;;;;;;7394267;19;20133;-88
2023/07/16 10:58:52;;;;;;;0.40;0.40;;;;;;;;;;7391980;19;20224;-88
2023/07/16 11:01:22;;;;;;;0.50;0.50;;;;;;;;;;7397379;19;20133;-88
2023/07/16 11:04:12;;;;;;;1.00;0.50;;;;;;;;;;7391624;19;20578;-88
2023/07/16 11:06:39;;;;;;;0.55;0.55;;;;;;;;;;7392811;19;20196;-89
2023/07/16 11:09:11;;;;;;;0.30;0.30;;;;;;;;;;7385976;19;20200;-90
2023/07/16 11:11:41;;;;;;;0.55;0.50;;;;;;;;;;7389487;19;20140;-90
2023/07/16 11:14:11;;;;;;;0.30;0.30;;;;;;;;;;7387630;19;20606;-88
2023/07/16 11:16:39;;;;;;;0.40;0.40;;;;;;;;;;7386960;19;20760;-87
2023/07/16 11:19:06;;;;;;;1.45;0.80;;;;;;;;;;7386292;19;20145;-88
2023/07/16 11:21:34;;;;;;;0.32;0.32;;;;;;;;;;7385809;19;20505;-88
2023/07/16 11:24:10;;;;;;;0.35;0.35;;;;;;;;;;7383690;19;20779;-88
2023/07/16 11:26:36;;;;;;;0.40;0.40;;;;;;;;;;7384966;19;20141;-88
2023/07/16 11:29:14;;;;;;;0.80;0.80;;;;;;;;;;7383737;19;20152;-88
2023/07/16 11:31:43;;;;;;;0.60;0.60;;;;;;;;;;7387510;19;20140;-89
2023/07/16 11:34:13;;;;;;;0.55;0.55;;;;;;;;;;7389631;19;20141;-87
2023/07/16 11:36:41;;;;;;;0.63;0.60;;;;;;;;;;7387775;19;20144;-88
2023/07/16 11:39:10;;;;;;;0.30;0.30;;;;;;;;;;7390418;19;20133;-88
2023/07/16 11:41:37;;;;;;;0.60;0.57;;;;;;;;;;7390505;19;20566;-89
2023/07/16 11:44:07;;;;;;;0.85;0.75;;;;;;;;;;7388018;19;20162;-88
2023/07/16 11:46:34;;;;;;;0.70;0.70;;;;;;;;;;7390135;19;20137;-90
2023/07/16 11:49:28;;;;;;;0.50;0.50;;;;;;;;;;7387080;19;20165;-91
2023/07/16 11:51:54;;;;;;;0.40;0.40;;;;;;;;;;7391661;19;20137;-89
2023/07/16 11:54:21;;;;;;;0.80;0.80;;;;;;;;;;7410199;19;20141;-88
2023/07/16 11:56:50;;;;;;;0.95;0.88;;;;;;;;;;7422290;19;20133;-90
2023/07/16 11:59:21;;;;;;;0.50;0.50;;;;;;;;;;7415175;19;20148;-89
2023/07/16 12:02:00;;;;;;;1.38;0.70;;;;;;;;;;7389794;19;20143;-90
2023/07/16 12:04:27;;;;;;;0.77;0.77;;;;;;;;;;7393078;19;20133;-88
2023/07/16 12:06:53;;;;;;;0.50;0.50;;;;;;;;;;7390725;19;20637;-88
2023/07/16 12:09:20;;;;;;;0.40;0.40;;;;;;;;;;7393607;19;20180;-89
2023/07/16 12:11:47;;;;;;;0.68;0.68;;;;;;;;;;7385502;19;20614;-89
2023/07/16 12:14:14;;;;;;;0.47;0.47;;;;;;;;;;7388877;19;20532;-89
2023/07/16 12:16:40;;;;;;;0.45;0.45;;;;;;;;;;7389886;19;20610;-89
2023/07/16 12:19:08;;;;;;;0.50;0.50;;;;;;;;;;7387563;19;20208;-88
2023/07/16 12:21:35;;;;;;;0.40;0.40;;;;;;;;;;7389060;19;20141;-88
2023/07/16 12:24:05;;;;;;;0.60;0.60;;;;;;;;;;7385630;19;20489;-89
2023/07/16 12:26:32;;;;;;;0.95;0.68;;;;;;;;;;7386206;19;20141;-89
2023/07/16 12:29:02;;;;;;;0.43;0.43;;;;;;;;;;7390328;19;20168;-88
2023/07/16 12:31:32;;;;;;;0.60;0.60;;;;;;;;;;7384314;19;20140;-89
2023/07/16 12:34:04;;;;;;;0.60;0.60;;;;;;;;;;7387994;19;20133;-90
2023/07/16 12:36:31;;;;;;;0.43;0.43;;;;;;;;;;7385043;19;20158;-88
2023/07/16 12:38:58;;;;;;;0.63;0.63;;;;;;;;;;7386739;19;20159;-89
2023/07/16 12:41:30;;;;;;;0.88;0.82;;;;;;;;;;7388528;19;20144;-88
2023/07/16 12:44:56;;;;;;;0.65;0.60;;;;;;;;;;7384627;19;20152;-88
2023/07/16 12:47:47;;;;;;;0.70;0.70;;;;;;;;;;7384441;19;20641;-88
2023/07/16 12:50:57;;;;;;;1.15;1.05;;;;;;;;;;7389218;19;20140;-89
2023/07/16 12:54:26;;;;;;;0.73;0.73;;;;;;;;;;7383475;19;20149;-89
2023/07/16 12:56:55;;;;;;;0.40;0.40;;;;;;;;;;7386315;19;20145;-88
2023/07/16 12:59:25;;;;;;;0.80;0.80;;;;;;;;;;7386509;19;20141;-89
2023/07/16 13:01:52;;;;;;;0.55;0.55;;;;;;;;;;7387147;19;20141;-87
2023/07/16 13:04:19;;;;;;;0.40;0.40;;;;;;;;;;7388129;19;20208;-89
2023/07/16 13:06:47;;;;;;;0.75;0.75;;;;;;;;;;7390206;19;20204;-88
2023/07/16 13:09:15;;;;;;;0.60;0.60;;;;;;;;;;7395516;19;20137;-88
2023/07/16 13:11:44;;;;;;;2.17;0.95;;;;;;;;;;7397253;19;20137;-88
2023/07/16 13:14:11;;;;;;;0.70;0.65;;;;;;;;;;7393957;19;20171;-88
2023/07/16 13:16:38;;;;;;;0.47;0.47;;;;;;;;;;7392829;19;20140;-89
2023/07/16 13:22:54;;;;;;;0.43;0.43;;;;;;;;;;7393462;19;20145;-87
2023/07/16 13:25:29;;;;;;;0.63;0.63;;;;;;;;;;7394896;19;20220;-88
2023/07/16 13:34:56;;;;;;;0.30;0.30;;;;;;;;;;7400152;19;20112;-88
2023/07/16 13:37:34;;;;;;;0.88;0.88;;;;;;;;;;7393664;19;20531;-88
2023/07/16 13:40:32;;;;;;;0.45;0.45;;;;;;;;;;7395980;19;20141;-87
2023/07/16 13:50:49;;;;;;;1.65;1.05;;;;;;;;;;7395214;19;20633;-85
2023/07/16 13:53:20;;;;;;;0.80;0.80;;;;;;;;;;7391557;19;20145;-85
2023/07/16 13:56:58;;;;;;;0.73;0.73;;;;;;;;;;7393884;19;20175;-86
2023/07/16 13:59:42;;;;;;;0.32;0.32;;;;;;;;;;7393604;19;20141;-86
2023/07/16 14:02:08;;;;;;;2.30;0.95;;;;;;;;;;7392160;19;20200;-85
2023/07/16 14:15:16;;;;;;;0.90;0.90;;;;;;;;;;7393089;19;20212;-87
2023/07/16 14:25:37;;;;;;;0.47;0.47;;;;;;;;;;7394838;19;20115;-85
2023/07/16 14:28:04;;;;;;;0.50;0.50;;;;;;;;;;7392829;19;20220;-85
2023/07/16 14:30:48;;;;;;;0.65;0.65;;;;;;;;;;7391657;19;20162;-84
2023/07/16 14:34:00;;;;;;;0.55;0.55;;;;;;;;;;7394731;19;20144;-85
2023/07/16 14:37:05;;;;;;;0.40;0.40;;;;;;;;;;7393519;19;20150;-85
2023/07/16 14:40:05;;;;;;;0.40;0.40;;;;;;;;;;7398343;19;20166;-85
2023/07/16 14:42:42;;;;;;;0.30;0.30;;;;;;;;;;7391942;19;20167;-85
2023/07/16 14:45:40;;;;;;;0.50;0.50;;;;;;;;;;7391590;19;20611;-84
2023/07/16 14:48:30;;;;;;;0.50;0.50;;;;;;;;;;7393696;19;20149;-85
2023/07/16 14:51:00;;;;;;;0.40;0.40;;;;;;;;;;7395698;19;20150;-85
2023/07/16 14:53:27;;;;;;;0.60;0.60;;;;;;;;;;7391330;19;20154;-85
2023/07/16 14:56:22;;;;;;;0.73;0.73;;;;;;;;;;7393464;19;20645;-86
2023/07/16 14:58:49;;;;;;;0.80;0.80;;;;;;;;;;7392026;19;20153;-86
2023/07/16 15:01:15;;;;;;;0.60;0.60;;;;;;;;;;7393922;19;20813;-86
2023/07/16 15:04:37;;;;;;;0.50;0.50;;;;;;;;;;7392295;19;20136;-86
2023/07/16 15:08:11;;;;;;;0.40;0.40;;;;;;;;;;7391642;19;20217;-86
2023/07/16 15:10:52;;;;;;;0.40;0.40;;;;;;;;;;7388423;19;20167;-85
2023/07/16 15:17:07;;;;;;;0.45;0.45;;;;;;;;;;7421045;19;20141;-86
2023/07/16 15:19:59;;;;;;;0.43;0.43;;;;;;;;;;7410147;19;20747;-86
2023/07/16 15:22:28;;;;;;;2.05;0.68;;;;;;;;;;7389332;19;20141;-86
2023/07/16 15:25:00;;;;;;;0.77;0.77;;;;;;;;;;7391156;19;20140;-86
2023/07/16 15:27:50;;;;;;;0.32;0.32;;;;;;;;;;7390579;19;20654;-88
2023/07/16 15:30:21;;;;;;;0.60;0.60;;;;;;;;;;7394227;19;20161;-85
2023/07/16 15:32:52;;;;;;;0.80;0.80;;;;;;;;;;7393073;19;20150;-87
2023/07/16 15:35:28;;;;;;;0.40;0.40;;;;;;;;;;7392069;19;20145;-86
2023/07/16 15:38:03;;;;;;;0.60;0.60;;;;;;;;;;7388663;19;20187;-87
2023/07/16 15:40:33;;;;;;;0.52;0.40;;;;;;;;;;7394645;19;20149;-87
2023/07/16 15:42:59;;;;;;;0.60;0.60;;;;;;;;;;7392675;19;20208;-87
2023/07/16 15:45:29;;;;;;;0.50;0.50;;;;;;;;;;7395220;19;20141;-87
2023/07/16 15:48:21;;;;;;;0.75;0.75;;;;;;;;;;7390922;19;20168;-85
2023/07/16 15:51:12;;;;;;;0.38;0.38;;;;;;;;;;7390280;19;20533;-86
2023/07/16 15:54:42;;;;;;;0.60;0.60;;;;;;;;;;7389035;19;20242;-87
2023/07/16 15:57:32;;;;;;;0.70;0.70;;;;;;;;;;7386129;19;20201;-86
2023/07/16 15:59:59;;;;;;;1.17;1.08;;;;;;;;;;7386132;19;20136;-87
2023/07/16 16:02:27;;;;;;;1.67;1.02;;;;;;;;;;7388082;19;20144;-86
2023/07/16 16:04:53;;;;;;;0.70;0.70;;;;;;;;;;7387477;19;20145;-86
2023/07/16 16:07:20;;;;;;;0.73;0.73;;;;;;;;;;7388170;19;20259;-85
2023/07/16 16:09:47;;;;;;;0.57;0.57;;;;;;;;;;7391852;19;20557;-86
2023/07/16 16:12:16;;;;;;;0.60;0.60;;;;;;;;;;7393159;19;20144;-86
2023/07/16 16:14:43;;;;;;;0.68;0.68;;;;;;;;;;7394818;19;20141;-86
2023/07/16 16:17:09;;;;;;;0.50;0.50;;;;;;;;;;7392381;19;20165;-85
2023/07/16 16:19:36;;;;;;;1.05;1.05;;;;;;;;;;7396364;19;20145;-86
2023/07/16 16:22:03;;;;;;;4.55;0.95;;;;;;;;;;7396999;19;20165;-86
2023/07/16 16:24:30;;;;;;;0.50;0.50;;;;;;;;;;7395532;19;20204;-85
2023/07/16 16:26:58;;;;;;;0.70;0.70;;;;;;;;;;7399993;19;20145;-87
2023/07/16 16:29:34;;;;;;;0.77;0.77;;;;;;;;;;7395474;19;20721;-85
2023/07/16 16:32:43;;;;;;;0.63;0.63;;;;;;;;;;7396720;19;20499;-85
2023/07/16 16:36:54;;;;;;;1.33;1.08;;;;;;;;;;7393514;19;20175;-86
2023/07/16 16:40:09;;;;;;;0.60;0.60;;;;;;;;;;7397254;19;20140;-88
2023/07/16 16:43:32;;;;;;;0.77;0.68;;;;;;;;;;7397238;19;20144;-88
2023/07/16 16:47:25;;;;;;;3.58;0.68;;;;;;;;;;7395590;19;20538;-88
2023/07/16 16:49:59;;;;;;;0.88;0.88;;;;;;;;;;7394781;19;20168;-88
2023/07/16 16:53:03;;;;;;;0.65;0.65;;;;;;;;;;7396217;19;20165;-87
2023/07/16 16:57:09;;;;;;;0.73;0.73;;;;;;;;;;7395993;19;20166;-87
2023/07/16 17:06:57;;;;;;;1.05;0.95;;;;;;;;;;7392823;19;20170;-87
2023/07/16 17:09:31;;;;;;;1.60;0.65;;;;;;;;;;7401162;19;20208;-87
2023/07/16 17:12:02;;;;;;;0.50;0.50;;;;;;;;;;7400102;19;20697;-87
2023/07/16 17:14:29;;;;;;;0.68;0.68;;;;;;;;;;7398375;19;20133;-87
2023/07/16 17:16:55;;;;;;;0.47;0.47;;;;;;;;;;7400183;19;20129;-87
2023/07/16 17:19:23;;;;;;;1.10;1.10;;;;;;;;;;7399346;19;20133;-87
2023/07/16 17:21:49;;;;;;;1.08;1.08;;;;;;;;;;7405966;19;20145;-88
2023/07/16 17:24:16;;;;;;;0.60;0.60;;;;;;;;;;7407162;19;20645;-87
2023/07/16 17:26:43;;;;;;;0.65;0.65;;;;;;;;;;7404352;19;20129;-87
2023/07/16 17:29:09;;;;;;;0.47;0.47;;;;;;;;;;7398265;19;20165;-87
2023/07/16 17:31:36;;;;;;;0.68;0.68;;;;;;;;;;7401914;19;20125;-87
2023/07/16 17:34:04;;;;;;;0.60;0.60;;;;;;;;;;7400249;19;20148;-87
2023/07/16 17:36:30;;;;;;;0.65;0.65;;;;;;;;;;7401506;19;20661;-87
2023/07/16 17:38:57;;;;;;;0.88;0.88;;;;;;;;;;7401724;19;20172;-86
2023/07/16 17:41:24;;;;;;;0.45;0.45;;;;;;;;;;7400973;19;20613;-88
2023/07/16 17:43:51;;;;;;;0.80;0.70;;;;;;;;;;7400680;19;20135;-87
2023/07/16 17:46:17;;;;;;;0.55;0.55;;;;;;;;;;7400775;19;20133;-87
2023/07/16 17:48:45;;;;;;;0.60;0.60;;;;;;;;;;7399524;19;20149;-87
2023/07/16 17:51:12;;;;;;;0.77;0.55;;;;;;;;;;7401237;19;20133;-86
2023/07/16 17:53:39;;;;;;;0.50;0.50;;;;;;;;;;7401200;19;20132;-88
2023/07/16 17:56:06;;;;;;;1.00;1.00;;;;;;;;;;7399887;19;20147;-87
2023/07/16 17:58:34;;;;;;;0.75;0.75;;;;;;;;;;7399518;19;20153;-87
2023/07/16 18:01:01;;;;;;;1.85;0.85;;;;;;;;;;7399584;19;20139;-86
2023/07/16 18:03:28;;;;;;;0.52;0.52;;;;;;;;;;7394423;19;20140;-87
2023/07/16 18:05:54;;;;;;;0.57;0.57;;;;;;;;;;7397171;19;20147;-87
2023/07/16 18:08:22;;;;;;;0.65;0.65;;;;;;;;;;7395772;19;20160;-87
2023/07/16 18:10:49;;;;;;;0.90;0.90;;;;;;;;;;7393016;19;20131;-87
2023/07/16 18:13:16;;;;;;;0.43;0.43;;;;;;;;;;7396154;19;20499;-87
2023/07/16 18:15:42;;;;;;;0.70;0.70;;;;;;;;;;7394307;19;20131;-88
2023/07/16 18:18:09;;;;;;;0.43;0.43;;;;;;;;;;7398789;19;20168;-88
2023/07/16 18:20:36;;;;;;;0.52;0.52;;;;;;;;;;7402274;19;20154;-87
2023/07/16 18:23:46;;;;;;;0.90;0.82;;;;;;;;;;7402326;19;20158;-86
2023/07/16 18:27:42;;;;;;;0.40;0.40;;;;;;;;;;7393756;19;20141;-87
2023/07/16 18:33:58;;;;;;;0.88;0.88;;;;;;;;;;7397980;19;20862;-87
2023/07/16 18:37:45;;;;;;;0.40;0.40;;;;;;;;;;7417124;19;20152;-88
2023/07/16 18:44:44;;;;;;;0.43;0.43;;;;;;;;;;7395024;19;20249;-86
2023/07/16 19:43:40;;;;;;;0.50;0.50;;;;;;;;;;7396586;19;20208;-86
2023/07/16 19:53:03;;;;;;;0.70;0.70;;;;;;;;;;7392371;19;20145;-88
2023/07/16 19:55:30;;;;;;;0.68;0.68;;;;;;;;;;7391181;19;20143;-85
2023/07/16 19:57:56;;;;;;;0.73;0.73;;;;;;;;;;7391866;19;20173;-85
2023/07/16 20:00:23;;;;;;;0.60;0.60;;;;;;;;;;7396181;19;20145;-86
2023/07/16 20:02:53;;;;;;;0.75;0.75;;;;;;;;;;7395216;19;20606;-86
2023/07/16 20:05:20;;;;;;;0.50;0.50;;;;;;;;;;7397097;19;20497;-86
2023/07/16 20:07:50;;;;;;;0.30;0.30;;;;;;;;;;7394782;19;20801;-85
2023/07/16 20:10:25;;;;;;;1.63;1.52;;;;;;;;;;7391989;19;20144;-85
2023/07/16 20:12:52;;;;;;;0.57;0.57;;;;;;;;;;7390769;19;20154;-86
2023/07/16 20:15:19;;;;;;;0.40;0.40;;;;;;;;;;7389649;19;20141;-84
2023/07/16 20:17:46;;;;;;;0.60;0.60;;;;;;;;;;7391539;19;20156;-86
2023/07/16 20:20:14;;;;;;;0.63;0.63;;;;;;;;;;7392693;19;20140;-86
2023/07/16 20:22:41;;;;;;;0.73;0.73;;;;;;;;;;7394240;19;20141;-86
2023/07/16 20:25:08;;;;;;;0.82;0.70;;;;;;;;;;7394920;19;20141;-86
2023/07/16 20:27:35;;;;;;;0.88;0.88;;;;;;;;;;7393648;19;20145;-86
2023/07/16 20:30:03;;;;;;;0.52;0.52;;;;;;;;;;7395734;19;20132;-86
2023/07/16 20:32:40;;;;;;;1.38;0.90;;;;;;;;;;7393881;19;20637;-86
2023/07/16 20:35:24;;;;;;;0.55;0.50;;;;;;;;;;7394251;19;20141;-87
2023/07/16 20:37:50;;;;;;;1.35;1.20;;;;;;;;;;7391635;19;20160;-86
2023/07/16 20:40:18;;;;;;;0.52;0.52;;;;;;;;;;7395782;19;20144;-86
